sensor_id;sensor_type;location;lat;lon;timestamp;pressure;altitude;pressure_sealevel;temperature;humidity
78679;BME280;67994;59.334;13.528;2023-08-21T00:00:00;101200.0;;;16.4;91.0
78679;BME280;67994;59.334;13.528;2023-08-21T00:01:00;101200.0;;;16.4;90.7
78679;BME280;67994;59.334;13.528;2023-08-21T00:02:00;101200.0;;;16.4;91.0
78679;BME280;67994;59.334;13.528;2023-08-21T00:03:00;101200.0;;;16.4;91.1
78679;BME280;67994;59.334;13.528;2023-08-21T00:04:00;101200.0;;;16.4;90.9
78679;BME280;67994;59.334;13.528;2023-08-21T00:05:00;101200.0;;;16.3;90.6
78679;BME280;67994;59.334;13.528;2023-08-21T00:06:00;101200.0;;;16.4;90.8
78679;BME280;67994;59.334;13.528;2023-08-21T00:07:00;101200.0;;;16.4;91.1
78679;BME280;67994;59.334;13.528;2023-08-21T00:08:00;101200.0;;;16.4;90.5
78679;BME280;67994;59.334;13.528;2023-08-21T00:09:00;101200.0;;;16.4;91.1
78679;BME280;67994;59.334;13.528;2023-08-21T00:10:00;101200.0;;;16.4;90.4
78679;BME280;67994;59.334;13.528;2023-08-21T00:11:00;101200.0;;;16.4;90.5
78679;BME280;67994;59.334;13.528;2023-08-21T00:12:00;101200.0;;;16.4;90.6
78679;BME280;67994;59.334;13.528;2023-08-21T00:13:00;101200.0;;;16.4;90.9
78679;BME280;67994;59.334;13.528;2023-08-21T00:14:00;101200.0;;;16.4;90.8
78679;BME280;67994;59.334;13.528;2023-08-21T00:15:00;101200.0;;;16.4;90.7
78679;BME280;67994;59.334;13.528;2023-08-21T00:16:00;101200.0;;;16.4;90.7
78679;BME280;67994;59.334;13.528;2023-08-21T00:17:01;101200.0;;;16.4;91.0
78679;BME280;67994;59.334;13.528;2023-08-21T00:18:00;101200.0;;;16.3;91.0
78679;BME280;67994;59.334;13.528;2023-08-21T00:19:00;101200.0;;;16.3;90.6
78679;BME280;67994;59.334;13.528;2023-08-21T00:20:00;101200.0;;;16.4;90.5
78679;BME280;67994;59.334;13.528;2023-08-21T00:21:00;101200.0;;;16.3;90.9
78679;BME280;67994;59.334;13.528;2023-08-21T00:22:00;101200.0;;;16.3;90.9
78679;BME280;67994;59.334;13.528;2023-08-21T00:23:00;101200.0;;;16.3;90.5
78679;BME280;67994;59.334;13.528;2023-08-21T00:24:00;101200.0;;;16.3;90.9
78679;BME280;67994;59.334;13.528;2023-08-21T00:25:00;101200.0;;;16.2;90.8
78679;BME280;67994;59.334;13.528;2023-08-21T00:26:00;101200.0;;;16.2;90.9
78679;BME280;67994;59.334;13.528;2023-08-21T00:27:00;101200.0;;;16.2;91.2
78679;BME280;67994;59.334;13.528;2023-08-21T00:28:00;101200.0;;;16.2;91.1
78679;BME280;67994;59.334;13.528;2023-08-21T00:29:00;101200.0;;;16.2;91.2
78679;BME280;67994;59.334;13.528;2023-08-21T00:30:00;101200.0;;;16.2;90.8
78679;BME280;67994;59.334;13.528;2023-08-21T00:31:01;101200.0;;;16.2;90.8
78679;BME280;67994;59.334;13.528;2023-08-21T00:32:00;101200.0;;;16.2;91.3
78679;BME280;67994;59.334;13.528;2023-08-21T00:33:00;101200.0;;;16.2;91.0
78679;BME280;67994;59.334;13.528;2023-08-21T00:34:00;101200.0;;;16.1;91.1
78679;BME280;67994;59.334;13.528;2023-08-21T00:35:00;101200.0;;;16.1;90.4
78679;BME280;67994;59.334;13.528;2023-08-21T00:36:00;101200.0;;;16.1;91.1
78679;BME280;67994;59.334;13.528;2023-08-21T00:37:00;101200.0;;;16.1;91.4
78679;BME280;67994;59.334;13.528;2023-08-21T00:38:00;101200.0;;;16.1;90.8
78679;BME280;67994;59.334;13.528;2023-08-21T00:39:00;101200.0;;;16.1;90.8
78679;BME280;67994;59.334;13.528;2023-08-21T00:40:00;101200.0;;;16.1;90.8
78679;BME280;67994;59.334;13.528;2023-08-21T00:41:00;101200.0;;;16.1;91.0
78679;BME280;67994;59.334;13.528;2023-08-21T00:42:00;101200.0;;;16.1;90.8
78679;BME280;67994;59.334;13.528;2023-08-21T00:43:00;101200.0;;;16.1;91.0
78679;BME280;67994;59.334;13.528;2023-08-21T00:44:00;101200.0;;;16.0;91.1
78679;BME280;67994;59.334;13.528;2023-08-21T00:45:00;101200.0;;;16.0;91.3
78679;BME280;67994;59.334;13.528;2023-08-21T00:46:00;101200.0;;;16.0;90.9
78679;BME280;67994;59.334;13.528;2023-08-21T00:47:00;101200.0;;;16.0;91.0
78679;BME280;67994;59.334;13.528;2023-08-21T00:48:00;101200.0;;;15.9;90.7
78679;BME280;67994;59.334;13.528;2023-08-21T00:49:00;101200.0;;;15.9;91.2
78679;BME280;67994;59.334;13.528;2023-08-21T00:50:00;101200.0;;;16.0;91.1
78679;BME280;67994;59.334;13.528;2023-08-21T00:51:00;101200.0;;;15.9;91.1
78679;BME280;67994;59.334;13.528;2023-08-21T00:52:01;101200.0;;;16.0;91.1
78679;BME280;67994;59.334;13.528;2023-08-21T00:53:00;101200.0;;;16.0;91.0
78679;BME280;67994;59.334;13.528;2023-08-21T00:54:00;101200.0;;;16.0;91.0
78679;BME280;67994;59.334;13.528;2023-08-21T00:55:00;101200.0;;;16.0;91.0
78679;BME280;67994;59.334;13.528;2023-08-21T00:56:00;101200.0;;;16.0;91.2
78679;BME280;67994;59.334;13.528;2023-08-21T00:57:00;101200.0;;;16.0;91.2
78679;BME280;67994;59.334;13.528;2023-08-21T00:58:01;101200.0;;;16.0;91.2
78679;BME280;67994;59.334;13.528;2023-08-21T00:59:00;101200.0;;;16.0;90.5
78679;BME280;67994;59.334;13.528;2023-08-21T01:00:00;101200.0;;;16.0;90.2
78679;BME280;67994;59.334;13.528;2023-08-21T01:01:00;101200.0;;;16.0;90.0
78679;BME280;67994;59.334;13.528;2023-08-21T01:02:00;101200.0;;;16.0;90.9
78679;BME280;67994;59.334;13.528;2023-08-21T01:03:00;101200.0;;;16.0;90.7
78679;BME280;67994;59.334;13.528;2023-08-21T01:04:00;101200.0;;;16.0;90.9
78679;BME280;67994;59.334;13.528;2023-08-21T01:05:00;101200.0;;;16.0;91.1
78679;BME280;67994;59.334;13.528;2023-08-21T01:06:00;101200.0;;;16.0;90.6
78679;BME280;67994;59.334;13.528;2023-08-21T01:07:00;101200.0;;;16.0;90.7
78679;BME280;67994;59.334;13.528;2023-08-21T01:08:02;101200.0;;;16.0;90.8
78679;BME280;67994;59.334;13.528;2023-08-21T01:09:02;101200.0;;;16.0;91.1
78679;BME280;67994;59.334;13.528;2023-08-21T01:10:04;101200.0;;;16.0;90.8
78679;BME280;67994;59.334;13.528;2023-08-21T01:11:06;101200.0;;;16.0;90.7
78679;BME280;67994;59.334;13.528;2023-08-21T01:12:06;101200.0;;;16.0;91.1
78679;BME280;67994;59.334;13.528;2023-08-21T01:13:04;101200.0;;;16.0;90.6
78679;BME280;67994;59.334;13.528;2023-08-21T01:14:13;101200.0;;;16.0;90.5
78679;BME280;67994;59.334;13.528;2023-08-21T01:15:03;101200.0;;;16.0;90.8
78679;BME280;67994;59.334;13.528;2023-08-21T01:16:00;101200.0;;;16.0;91.0
78679;BME280;67994;59.334;13.528;2023-08-21T01:17:02;101200.0;;;16.0;90.8
78679;BME280;67994;59.334;13.528;2023-08-21T01:18:01;101200.0;;;16.0;91.0
78679;BME280;67994;59.334;13.528;2023-08-21T01:19:01;101200.0;;;16.0;90.7
78679;BME280;67994;59.334;13.528;2023-08-21T01:20:00;101200.0;;;16.0;90.7
78679;BME280;67994;59.334;13.528;2023-08-21T01:21:02;101200.0;;;16.0;91.1
78679;BME280;67994;59.334;13.528;2023-08-21T01:22:00;101200.0;;;15.9;90.7
78679;BME280;67994;59.334;13.528;2023-08-21T01:23:03;101200.0;;;15.9;90.9
78679;BME280;67994;59.334;13.528;2023-08-21T01:24:00;101200.0;;;15.9;91.2
78679;BME280;67994;59.334;13.528;2023-08-21T01:25:00;101200.0;;;15.9;91.4
78679;BME280;67994;59.334;13.528;2023-08-21T01:26:00;101200.0;;;15.9;91.5
78679;BME280;67994;59.334;13.528;2023-08-21T01:27:00;101200.0;;;15.9;91.3
78679;BME280;67994;59.334;13.528;2023-08-21T01:28:00;101200.0;;;15.9;91.6
78679;BME280;67994;59.334;13.528;2023-08-21T01:29:00;101200.0;;;15.9;91.3
78679;BME280;67994;59.334;13.528;2023-08-21T01:30:00;101200.0;;;15.9;91.4
78679;BME280;67994;59.334;13.528;2023-08-21T01:31:04;101200.0;;;15.9;91.4
78679;BME280;67994;59.334;13.528;2023-08-21T01:32:04;101200.0;;;15.8;91.5
78679;BME280;67994;59.334;13.528;2023-08-21T01:33:03;101200.0;;;15.9;91.2
78679;BME280;67994;59.334;13.528;2023-08-21T01:34:04;101200.0;;;15.9;91.1
78679;BME280;67994;59.334;13.528;2023-08-21T01:35:01;101200.0;;;16.0;91.3
78679;BME280;67994;59.334;13.528;2023-08-21T01:36:02;101200.0;;;15.9;91.0
78679;BME280;67994;59.334;13.528;2023-08-21T01:37:00;101200.0;;;15.9;91.3
78679;BME280;67994;59.334;13.528;2023-08-21T01:38:00;101200.0;;;15.9;91.7
78679;BME280;67994;59.334;13.528;2023-08-21T01:39:00;101200.0;;;15.9;91.7
78679;BME280;67994;59.334;13.528;2023-08-21T01:40:00;101200.0;;;15.9;91.4
78679;BME280;67994;59.334;13.528;2023-08-21T01:41:00;101200.0;;;16.0;91.8
78679;BME280;67994;59.334;13.528;2023-08-21T01:42:00;101200.0;;;15.9;92.2
78679;BME280;67994;59.334;13.528;2023-08-21T01:43:00;101200.0;;;16.0;92.0
78679;BME280;67994;59.334;13.528;2023-08-21T01:44:00;101200.0;;;16.0;92.3
78679;BME280;67994;59.334;13.528;2023-08-21T01:45:00;101200.0;;;16.0;92.1
78679;BME280;67994;59.334;13.528;2023-08-21T01:46:01;101200.0;;;16.0;92.1
78679;BME280;67994;59.334;13.528;2023-08-21T01:47:00;101200.0;;;16.0;92.1
78679;BME280;67994;59.334;13.528;2023-08-21T01:48:00;101200.0;;;16.0;92.4
78679;BME280;67994;59.334;13.528;2023-08-21T01:49:00;101200.0;;;16.0;91.8
78679;BME280;67994;59.334;13.528;2023-08-21T01:50:00;101200.0;;;16.1;91.8
78679;BME280;67994;59.334;13.528;2023-08-21T01:51:00;101200.0;;;16.1;92.3
78679;BME280;67994;59.334;13.528;2023-08-21T01:52:00;101200.0;;;16.1;92.0
78679;BME280;67994;59.334;13.528;2023-08-21T01:53:00;101200.0;;;16.1;92.1
78679;BME280;67994;59.334;13.528;2023-08-21T01:54:00;101200.0;;;16.1;92.0
78679;BME280;67994;59.334;13.528;2023-08-21T01:55:00;101200.0;;;16.2;92.2
78679;BME280;67994;59.334;13.528;2023-08-21T01:56:00;101200.0;;;16.1;92.1
78679;BME280;67994;59.334;13.528;2023-08-21T01:57:00;101200.0;;;16.1;92.4
78679;BME280;67994;59.334;13.528;2023-08-21T01:58:00;101200.0;;;16.1;92.2
78679;BME280;67994;59.334;13.528;2023-08-21T01:59:00;101200.0;;;16.1;92.2
78679;BME280;67994;59.334;13.528;2023-08-21T02:00:00;101200.0;;;16.2;92.1
78679;BME280;67994;59.334;13.528;2023-08-21T02:01:00;101200.0;;;16.2;91.8
78679;BME280;67994;59.334;13.528;2023-08-21T02:02:00;101200.0;;;16.1;92.1
78679;BME280;67994;59.334;13.528;2023-08-21T02:03:00;101200.0;;;16.1;92.2
78679;BME280;67994;59.334;13.528;2023-08-21T02:04:00;101200.0;;;16.1;92.4
78679;BME280;67994;59.334;13.528;2023-08-21T02:05:00;101200.0;;;16.2;92.2
78679;BME280;67994;59.334;13.528;2023-08-21T02:06:00;101200.0;;;16.2;92.0
78679;BME280;67994;59.334;13.528;2023-08-21T02:07:00;101200.0;;;16.1;92.2
78679;BME280;67994;59.334;13.528;2023-08-21T02:08:00;101200.0;;;16.1;92.3
78679;BME280;67994;59.334;13.528;2023-08-21T02:09:00;101200.0;;;16.1;92.4
78679;BME280;67994;59.334;13.528;2023-08-21T02:10:00;101200.0;;;16.2;92.1
78679;BME280;67994;59.334;13.528;2023-08-21T02:11:00;101200.0;;;16.2;92.1
78679;BME280;67994;59.334;13.528;2023-08-21T02:12:00;101200.0;;;16.2;92.3
78679;BME280;67994;59.334;13.528;2023-08-21T02:13:00;101200.0;;;16.2;92.2
78679;BME280;67994;59.334;13.528;2023-08-21T02:14:00;101200.0;;;16.2;92.0
78679;BME280;67994;59.334;13.528;2023-08-21T02:15:00;101200.0;;;16.2;92.2
78679;BME280;67994;59.334;13.528;2023-08-21T02:16:00;101200.0;;;16.2;92.1
78679;BME280;67994;59.334;13.528;2023-08-21T02:17:00;101200.0;;;16.2;92.2
78679;BME280;67994;59.334;13.528;2023-08-21T02:18:00;101200.0;;;16.2;92.1
78679;BME280;67994;59.334;13.528;2023-08-21T02:19:00;101200.0;;;16.2;92.3
78679;BME280;67994;59.334;13.528;2023-08-21T02:20:00;101200.0;;;16.2;92.3
78679;BME280;67994;59.334;13.528;2023-08-21T02:21:00;101200.0;;;16.1;92.4
78679;BME280;67994;59.334;13.528;2023-08-21T02:22:00;101200.0;;;16.2;92.2
78679;BME280;67994;59.334;13.528;2023-08-21T02:23:00;101200.0;;;16.2;92.1
78679;BME280;67994;59.334;13.528;2023-08-21T02:24:00;101200.0;;;16.2;92.4
78679;BME280;67994;59.334;13.528;2023-08-21T02:25:00;101200.0;;;16.2;92.0
78679;BME280;67994;59.334;13.528;2023-08-21T02:26:00;101200.0;;;16.2;91.7
78679;BME280;67994;59.334;13.528;2023-08-21T02:27:00;101200.0;;;16.1;92.0
78679;BME280;67994;59.334;13.528;2023-08-21T02:28:00;101200.0;;;16.1;92.1
78679;BME280;67994;59.334;13.528;2023-08-21T02:29:00;101200.0;;;16.1;91.9
78679;BME280;67994;59.334;13.528;2023-08-21T02:30:01;101200.0;;;16.1;91.9
78679;BME280;67994;59.334;13.528;2023-08-21T02:31:00;101200.0;;;16.1;91.8
78679;BME280;67994;59.334;13.528;2023-08-21T02:32:00;101200.0;;;16.1;91.5
78679;BME280;67994;59.334;13.528;2023-08-21T02:33:00;101200.0;;;16.1;91.5
78679;BME280;67994;59.334;13.528;2023-08-21T02:34:00;101200.0;;;16.0;91.5
78679;BME280;67994;59.334;13.528;2023-08-21T02:35:00;101200.0;;;16.1;91.6
78679;BME280;67994;59.334;13.528;2023-08-21T02:36:00;101200.0;;;16.1;91.3
78679;BME280;67994;59.334;13.528;2023-08-21T02:37:00;101200.0;;;16.1;91.5
78679;BME280;67994;59.334;13.528;2023-08-21T02:38:00;101200.0;;;16.1;91.4
78679;BME280;67994;59.334;13.528;2023-08-21T02:39:00;101200.0;;;16.0;91.5
78679;BME280;67994;59.334;13.528;2023-08-21T02:40:00;101200.0;;;16.0;91.5
78679;BME280;67994;59.334;13.528;2023-08-21T02:41:00;101200.0;;;16.1;91.2
78679;BME280;67994;59.334;13.528;2023-08-21T02:42:00;101200.0;;;16.0;91.4
78679;BME280;67994;59.334;13.528;2023-08-21T02:43:00;101200.0;;;16.0;91.5
78679;BME280;67994;59.334;13.528;2023-08-21T02:44:00;101200.0;;;16.0;91.4
78679;BME280;67994;59.334;13.528;2023-08-21T02:45:00;101200.0;;;16.0;91.5
78679;BME280;67994;59.334;13.528;2023-08-21T02:46:00;101200.0;;;16.0;91.5
78679;BME280;67994;59.334;13.528;2023-08-21T02:47:00;101200.0;;;16.0;91.5
78679;BME280;67994;59.334;13.528;2023-08-21T02:48:00;101200.0;;;16.0;91.2
78679;BME280;67994;59.334;13.528;2023-08-21T02:49:00;101200.0;;;15.9;91.5
78679;BME280;67994;59.334;13.528;2023-08-21T02:50:00;101200.0;;;15.9;91.2
78679;BME280;67994;59.334;13.528;2023-08-21T02:51:00;101200.0;;;15.9;91.3
78679;BME280;67994;59.334;13.528;2023-08-21T02:52:00;101200.0;;;15.9;91.4
78679;BME280;67994;59.334;13.528;2023-08-21T02:53:00;101200.0;;;15.9;91.0
78679;BME280;67994;59.334;13.528;2023-08-21T02:54:00;101200.0;;;15.8;91.2
78679;BME280;67994;59.334;13.528;2023-08-21T02:55:00;101200.0;;;15.8;91.0
78679;BME280;67994;59.334;13.528;2023-08-21T02:56:00;101200.0;;;15.8;91.0
78679;BME280;67994;59.334;13.528;2023-08-21T02:57:00;101200.0;;;15.8;91.3
78679;BME280;67994;59.334;13.528;2023-08-21T02:58:00;101200.0;;;15.8;91.1
78679;BME280;67994;59.334;13.528;2023-08-21T02:59:00;101200.0;;;15.8;91.4
78679;BME280;67994;59.334;13.528;2023-08-21T03:00:00;101200.0;;;15.8;91.3
78679;BME280;67994;59.334;13.528;2023-08-21T03:01:00;101200.0;;;15.8;91.5
78679;BME280;67994;59.334;13.528;2023-08-21T03:02:00;101200.0;;;15.8;91.1
78679;BME280;67994;59.334;13.528;2023-08-21T03:03:00;101200.0;;;15.8;91.0
78679;BME280;67994;59.334;13.528;2023-08-21T03:04:00;101200.0;;;15.7;91.2
78679;BME280;67994;59.334;13.528;2023-08-21T03:05:00;101200.0;;;15.8;91.4
78679;BME280;67994;59.334;13.528;2023-08-21T03:06:00;101200.0;;;15.7;91.5
78679;BME280;67994;59.334;13.528;2023-08-21T03:07:00;101200.0;;;15.7;91.3
78679;BME280;67994;59.334;13.528;2023-08-21T03:08:00;101200.0;;;15.7;91.4
78679;BME280;67994;59.334;13.528;2023-08-21T03:09:00;101200.0;;;15.7;90.8
78679;BME280;67994;59.334;13.528;2023-08-21T03:10:00;101200.0;;;15.7;91.0
78679;BME280;67994;59.334;13.528;2023-08-21T03:11:00;101200.0;;;15.7;91.0
78679;BME280;67994;59.334;13.528;2023-08-21T03:12:00;101200.0;;;15.7;91.2
78679;BME280;67994;59.334;13.528;2023-08-21T03:13:00;101200.0;;;15.6;91.2
78679;BME280;67994;59.334;13.528;2023-08-21T03:14:00;101200.0;;;15.7;91.0
78679;BME280;67994;59.334;13.528;2023-08-21T03:15:00;101200.0;;;15.6;91.1
78679;BME280;67994;59.334;13.528;2023-08-21T03:16:00;101200.0;;;15.6;91.2
78679;BME280;67994;59.334;13.528;2023-08-21T03:17:00;101200.0;;;15.6;91.4
78679;BME280;67994;59.334;13.528;2023-08-21T03:18:00;101200.0;;;15.5;91.3
78679;BME280;67994;59.334;13.528;2023-08-21T03:19:00;101200.0;;;15.5;91.2
78679;BME280;67994;59.334;13.528;2023-08-21T03:20:00;101200.0;;;15.6;90.9
78679;BME280;67994;59.334;13.528;2023-08-21T03:21:00;101200.0;;;15.5;91.3
78679;BME280;67994;59.334;13.528;2023-08-21T03:22:00;101200.0;;;15.5;90.9
78679;BME280;67994;59.334;13.528;2023-08-21T03:23:00;101200.0;;;15.5;90.9
78679;BME280;67994;59.334;13.528;2023-08-21T03:24:00;101200.0;;;15.5;90.7
78679;BME280;67994;59.334;13.528;2023-08-21T03:25:00;101200.0;;;15.5;90.6
78679;BME280;67994;59.334;13.528;2023-08-21T03:26:00;101200.0;;;15.5;90.4
78679;BME280;67994;59.334;13.528;2023-08-21T03:27:01;101200.0;;;15.5;90.4
78679;BME280;67994;59.334;13.528;2023-08-21T03:28:00;101200.0;;;15.5;90.6
78679;BME280;67994;59.334;13.528;2023-08-21T03:29:01;101200.0;;;15.4;90.3
78679;BME280;67994;59.334;13.528;2023-08-21T03:30:00;101200.0;;;15.4;90.3
78679;BME280;67994;59.334;13.528;2023-08-21T03:31:00;101200.0;;;15.5;90.1
78679;BME280;67994;59.334;13.528;2023-08-21T03:32:00;101200.0;;;15.4;90.2
78679;BME280;67994;59.334;13.528;2023-08-21T03:33:00;101200.0;;;15.4;90.0
78679;BME280;67994;59.334;13.528;2023-08-21T03:34:00;101200.0;;;15.4;90.0
78679;BME280;67994;59.334;13.528;2023-08-21T03:35:00;101200.0;;;15.4;89.9
78679;BME280;67994;59.334;13.528;2023-08-21T03:36:00;101200.0;;;15.4;89.8
78679;BME280;67994;59.334;13.528;2023-08-21T03:37:00;101200.0;;;15.4;90.0
78679;BME280;67994;59.334;13.528;2023-08-21T03:38:00;101200.0;;;15.3;89.8
78679;BME280;67994;59.334;13.528;2023-08-21T03:39:01;101200.0;;;15.4;89.7
78679;BME280;67994;59.334;13.528;2023-08-21T03:40:02;101200.0;;;15.4;89.5
78679;BME280;67994;59.334;13.528;2023-08-21T03:41:00;101200.0;;;15.4;89.5
78679;BME280;67994;59.334;13.528;2023-08-21T03:42:00;101200.0;;;15.3;89.9
78679;BME280;67994;59.334;13.528;2023-08-21T03:43:00;101200.0;;;15.4;89.7
78679;BME280;67994;59.334;13.528;2023-08-21T03:44:00;101200.0;;;15.3;89.9
78679;BME280;67994;59.334;13.528;2023-08-21T03:45:01;101200.0;;;15.4;89.7
78679;BME280;67994;59.334;13.528;2023-08-21T03:46:00;101200.0;;;15.4;89.3
78679;BME280;67994;59.334;13.528;2023-08-21T03:47:00;101200.0;;;15.5;89.1
78679;BME280;67994;59.334;13.528;2023-08-21T03:48:00;101200.0;;;15.4;89.4
78679;BME280;67994;59.334;13.528;2023-08-21T03:49:00;101200.0;;;15.4;89.3
78679;BME280;67994;59.334;13.528;2023-08-21T03:50:00;101200.0;;;15.4;89.2
78679;BME280;67994;59.334;13.528;2023-08-21T03:51:00;101200.0;;;15.4;89.5
78679;BME280;67994;59.334;13.528;2023-08-21T03:52:00;101200.0;;;15.4;89.3
78679;BME280;67994;59.334;13.528;2023-08-21T03:53:00;101200.0;;;15.4;89.5
78679;BME280;67994;59.334;13.528;2023-08-21T03:54:00;101200.0;;;15.4;89.5
78679;BME280;67994;59.334;13.528;2023-08-21T03:55:00;101200.0;;;15.4;89.7
78679;BME280;67994;59.334;13.528;2023-08-21T03:56:00;101200.0;;;15.3;89.8
78679;BME280;67994;59.334;13.528;2023-08-21T03:57:00;101200.0;;;15.3;89.6
78679;BME280;67994;59.334;13.528;2023-08-21T03:58:00;101200.0;;;15.3;89.6
78679;BME280;67994;59.334;13.528;2023-08-21T03:59:00;101200.0;;;15.3;89.6
78679;BME280;67994;59.334;13.528;2023-08-21T04:00:00;101200.0;;;15.3;89.7
78679;BME280;67994;59.334;13.528;2023-08-21T04:01:00;101200.0;;;15.3;89.5
78679;BME280;67994;59.334;13.528;2023-08-21T04:02:00;101200.0;;;15.4;89.4
78679;BME280;67994;59.334;13.528;2023-08-21T04:03:00;101200.0;;;15.4;89.4
78679;BME280;67994;59.334;13.528;2023-08-21T04:04:00;101200.0;;;15.4;89.3
78679;BME280;67994;59.334;13.528;2023-08-21T04:05:00;101200.0;;;15.4;89.2
78679;BME280;67994;59.334;13.528;2023-08-21T04:06:01;101200.0;;;15.4;89.4
78679;BME280;67994;59.334;13.528;2023-08-21T04:07:00;101200.0;;;15.4;89.5
78679;BME280;67994;59.334;13.528;2023-08-21T04:08:00;101200.0;;;15.4;89.5
78679;BME280;67994;59.334;13.528;2023-08-21T04:09:00;101200.0;;;15.4;89.5
78679;BME280;67994;59.334;13.528;2023-08-21T04:10:00;101200.0;;;15.6;88.7
78679;BME280;67994;59.334;13.528;2023-08-21T04:11:01;101200.0;;;15.6;88.9
78679;BME280;67994;59.334;13.528;2023-08-21T04:12:00;101200.0;;;15.7;88.9
78679;BME280;67994;59.334;13.528;2023-08-21T04:13:00;101200.0;;;15.8;88.5
78679;BME280;67994;59.334;13.528;2023-08-21T04:14:00;101200.0;;;15.9;88.3
78679;BME280;67994;59.334;13.528;2023-08-21T04:15:00;101200.0;;;15.9;87.8
78679;BME280;67994;59.334;13.528;2023-08-21T04:16:00;101200.0;;;16.1;87.6
78679;BME280;67994;59.334;13.528;2023-08-21T04:17:00;101200.0;;;16.2;87.4
78679;BME280;67994;59.334;13.528;2023-08-21T04:18:00;101200.0;;;16.4;86.5
78679;BME280;67994;59.334;13.528;2023-08-21T04:19:00;101200.0;;;16.5;86.7
78679;BME280;67994;59.334;13.528;2023-08-21T04:20:00;101200.0;;;16.6;86.0
78679;BME280;67994;59.334;13.528;2023-08-21T04:21:00;101200.0;;;16.8;85.5
78679;BME280;67994;59.334;13.528;2023-08-21T04:22:00;101200.0;;;17.0;85.0
78679;BME280;67994;59.334;13.528;2023-08-21T04:23:00;101200.0;;;16.9;84.4
78679;BME280;67994;59.334;13.528;2023-08-21T04:24:00;101100.0;;;17.0;84.3
78679;BME280;67994;59.334;13.528;2023-08-21T04:25:00;101200.0;;;16.9;85.1
78679;BME280;67994;59.334;13.528;2023-08-21T04:26:00;101100.0;;;16.8;85.2
78679;BME280;67994;59.334;13.528;2023-08-21T04:27:00;101200.0;;;16.9;85.5
78679;BME280;67994;59.334;13.528;2023-08-21T04:28:00;101200.0;;;17.0;85.1
78679;BME280;67994;59.334;13.528;2023-08-21T04:29:00;101100.0;;;17.2;84.3
78679;BME280;67994;59.334;13.528;2023-08-21T04:30:00;101100.0;;;17.2;84.3
78679;BME280;67994;59.334;13.528;2023-08-21T04:31:00;101100.0;;;17.3;84.5
78679;BME280;67994;59.334;13.528;2023-08-21T04:32:00;101100.0;;;17.3;84.2
78679;BME280;67994;59.334;13.528;2023-08-21T04:33:00;101100.0;;;17.6;83.3
78679;BME280;67994;59.334;13.528;2023-08-21T04:34:00;101100.0;;;17.5;83.6
78679;BME280;67994;59.334;13.528;2023-08-21T04:35:00;101100.0;;;17.6;82.9
78679;BME280;67994;59.334;13.528;2023-08-21T04:36:00;101100.0;;;17.7;82.8
78679;BME280;67994;59.334;13.528;2023-08-21T04:37:00;101100.0;;;17.8;82.0
78679;BME280;67994;59.334;13.528;2023-08-21T04:38:00;101100.0;;;17.6;82.9
78679;BME280;67994;59.334;13.528;2023-08-21T04:39:00;101100.0;;;17.5;82.4
78679;BME280;67994;59.334;13.528;2023-08-21T04:40:00;101100.0;;;17.3;83.5
78679;BME280;67994;59.334;13.528;2023-08-21T04:41:08;101100.0;;;17.2;84.1
78679;BME280;67994;59.334;13.528;2023-08-21T04:42:00;101100.0;;;17.1;83.8
78679;BME280;67994;59.334;13.528;2023-08-21T04:43:00;101100.0;;;17.1;84.3
78679;BME280;67994;59.334;13.528;2023-08-21T04:44:00;101100.0;;;17.1;84.3
78679;BME280;67994;59.334;13.528;2023-08-21T04:45:00;101100.0;;;17.3;83.7
78679;BME280;67994;59.334;13.528;2023-08-21T04:46:00;101100.0;;;17.2;84.1
78679;BME280;67994;59.334;13.528;2023-08-21T04:48:00;101100.0;;;17.2;84.2
78679;BME280;67994;59.334;13.528;2023-08-21T04:49:00;101100.0;;;17.0;85.1
78679;BME280;67994;59.334;13.528;2023-08-21T04:50:00;101100.0;;;17.0;85.0
78679;BME280;67994;59.334;13.528;2023-08-21T04:51:00;101100.0;;;17.1;84.6
78679;BME280;67994;59.334;13.528;2023-08-21T04:52:00;101100.0;;;17.1;84.7
78679;BME280;67994;59.334;13.528;2023-08-21T04:53:00;101100.0;;;16.9;85.1
78679;BME280;67994;59.334;13.528;2023-08-21T04:54:00;101100.0;;;16.9;85.4
78679;BME280;67994;59.334;13.528;2023-08-21T04:55:00;101100.0;;;17.0;84.9
78679;BME280;67994;59.334;13.528;2023-08-21T04:56:00;101100.0;;;16.9;85.3
78679;BME280;67994;59.334;13.528;2023-08-21T04:57:00;101100.0;;;16.8;85.7
78679;BME280;67994;59.334;13.528;2023-08-21T04:58:00;101100.0;;;16.8;85.8
78679;BME280;67994;59.334;13.528;2023-08-21T04:59:01;101100.0;;;16.8;85.5
78679;BME280;67994;59.334;13.528;2023-08-21T05:00:00;101100.0;;;16.7;86.0
78679;BME280;67994;59.334;13.528;2023-08-21T05:01:00;101100.0;;;16.7;86.4
78679;BME280;67994;59.334;13.528;2023-08-21T05:02:00;101100.0;;;16.7;86.2
78679;BME280;67994;59.334;13.528;2023-08-21T05:03:00;101100.0;;;16.7;86.1
78679;BME280;67994;59.334;13.528;2023-08-21T05:04:00;101100.0;;;16.7;86.4
78679;BME280;67994;59.334;13.528;2023-08-21T05:05:00;101100.0;;;16.7;85.9
78679;BME280;67994;59.334;13.528;2023-08-21T05:06:00;101100.0;;;16.7;86.0
78679;BME280;67994;59.334;13.528;2023-08-21T05:07:00;101100.0;;;16.8;86.1
78679;BME280;67994;59.334;13.528;2023-08-21T05:08:00;101100.0;;;16.7;86.0
78679;BME280;67994;59.334;13.528;2023-08-21T05:09:00;101100.0;;;16.5;86.3
78679;BME280;67994;59.334;13.528;2023-08-21T05:10:00;101100.0;;;16.5;86.9
78679;BME280;67994;59.334;13.528;2023-08-21T05:11:00;101100.0;;;16.5;86.6
78679;BME280;67994;59.334;13.528;2023-08-21T05:12:00;101100.0;;;16.4;86.7
78679;BME280;67994;59.334;13.528;2023-08-21T05:13:00;101100.0;;;16.5;87.1
78679;BME280;67994;59.334;13.528;2023-08-21T05:14:00;101100.0;;;16.5;86.9
78679;BME280;67994;59.334;13.528;2023-08-21T05:15:00;101100.0;;;16.5;86.9
78679;BME280;67994;59.334;13.528;2023-08-21T05:16:01;101100.0;;;16.5;86.6
78679;BME280;67994;59.334;13.528;2023-08-21T05:17:00;101100.0;;;16.4;86.7
78679;BME280;67994;59.334;13.528;2023-08-21T05:18:00;101100.0;;;16.4;86.5
78679;BME280;67994;59.334;13.528;2023-08-21T05:19:00;101100.0;;;16.4;86.9
78679;BME280;67994;59.334;13.528;2023-08-21T05:20:00;101100.0;;;16.4;86.6
78679;BME280;67994;59.334;13.528;2023-08-21T05:21:00;101100.0;;;16.4;86.5
78679;BME280;67994;59.334;13.528;2023-08-21T05:22:00;101100.0;;;16.4;86.6